Time;durP1;ratioP1;P1;durP2;ratioP2;P2;SDS_P1;SDS_P2;PMS_P1;PMS_P2;Temp;Humidity;BMP_temperature;BMP_pressure;BME280_temperature;BME280_humidity;BME280_pressure;Samples;Min_cycle;Max_cycle;Signal;HPM_P1;HPM_P2
2021/12/25 00:00:51;;;;;;;12.75;4.57;;;0.80;99.90;;;;;;4996053;28;20078;-85
2021/12/25 00:03:17;;;;;;;12.32;4.78;;;0.70;99.90;;;;;;5002024;28;20150;-84
2021/12/25 00:05:45;;;;;;;9.23;4.05;;;0.80;99.90;;;;;;5007708;28;20043;-84
2021/12/25 00:08:11;;;;;;;13.20;5.10;;;0.80;99.90;;;;;;5000790;28;20203;-84
2021/12/25 00:10:39;;;;;;;11.02;4.32;;;0.80;99.90;;;;;;4999874;28;20051;-85
2021/12/25 00:13:05;;;;;;;13.05;4.07;;;0.80;99.90;;;;;;4971850;28;20043;-84
2021/12/25 00:15:31;;;;;;;11.93;4.40;;;0.70;99.90;;;;;;5003520;28;20043;-85
2021/12/25 00:17:57;;;;;;;11.48;4.50;;;0.70;99.90;;;;;;4999986;28;20047;-84
2021/12/25 00:20:23;;;;;;;11.25;4.30;;;0.70;99.90;;;;;;4983866;28;20935;-85
2021/12/25 00:22:49;;;;;;;12.20;4.75;;;0.70;99.90;;;;;;4988669;28;20046;-85
2021/12/25 00:25:15;;;;;;;10.85;4.25;;;0.70;99.90;;;;;;4976661;28;20043;-84
2021/12/25 00:27:53;;;;;;;13.88;4.57;;;0.70;99.90;;;;;;5002968;28;20052;-85
2021/12/25 00:30:27;;;;;;;9.98;4.22;;;0.70;99.90;;;;;;4974387;28;20048;-83
2021/12/25 00:32:58;;;;;;;13.18;4.68;;;0.70;99.90;;;;;;5024061;28;20083;-85
2021/12/25 00:35:24;;;;;;;14.88;5.20;;;0.60;99.90;;;;;;4975800;28;20640;-84
2021/12/25 00:37:50;;;;;;;11.30;4.50;;;0.60;99.90;;;;;;4968540;28;20990;-85
2021/12/25 00:40:17;;;;;;;12.82;4.72;;;0.70;99.90;;;;;;4983334;28;20073;-84
2021/12/25 00:42:43;;;;;;;13.40;5.05;;;0.70;99.90;;;;;;4980539;28;20112;-84
2021/12/25 00:45:10;;;;;;;11.15;4.63;;;0.60;99.90;;;;;;4966501;28;20118;-85
2021/12/25 00:47:36;;;;;;;11.48;4.63;;;0.70;99.90;;;;;;5010052;28;20043;-84
2021/12/25 00:50:02;;;;;;;11.13;4.13;;;0.60;99.90;;;;;;4981024;28;20050;-84
2021/12/25 00:52:28;;;;;;;12.55;3.95;;;0.60;99.90;;;;;;4997712;28;20405;-85
2021/12/25 00:54:54;;;;;;;10.70;3.70;;;0.60;99.90;;;;;;5010268;28;20056;-85
2021/12/25 00:57:20;;;;;;;11.45;3.42;;;0.70;99.90;;;;;;5006357;28;20439;-86
2021/12/25 00:59:46;;;;;;;11.18;3.33;;;0.60;99.90;;;;;;4988998;28;20047;-85
2021/12/25 01:02:12;;;;;;;10.50;2.95;;;0.60;99.90;;;;;;4979414;28;20540;-85
2021/12/25 01:04:38;;;;;;;9.50;2.85;;;0.50;99.90;;;;;;4990632;28;20036;-83
2021/12/25 01:07:04;;;;;;;8.27;2.53;;;0.50;99.90;;;;;;4993377;28;21860;-84
2021/12/25 01:09:30;;;;;;;7.60;2.65;;;0.40;99.90;;;;;;5004357;28;20070;-85
2021/12/25 01:11:57;;;;;;;9.48;2.88;;;0.50;99.90;;;;;;4995051;28;20043;-84
2021/12/25 01:14:36;;;;;;;12.48;2.85;;;0.40;99.90;;;;;;4980663;28;20571;-84
2021/12/25 01:19:53;;;;;;;6.77;2.40;;;0.30;99.90;;;;;;5011820;28;20135;-84
2021/12/25 01:28:33;;;;;;;9.25;2.42;;;0.20;99.90;;;;;;4988685;28;20461;-85
2021/12/25 01:31:00;;;;;;;8.32;2.50;;;0.20;99.90;;;;;;5001387;28;20108;-86
2021/12/25 01:33:49;;;;;;;10.82;2.72;;;0.20;99.90;;;;;;5007043;28;20657;-85
2021/12/25 01:49:28;;;;;;;7.90;2.30;;;0.00;99.90;;;;;;4982971;28;20035;-85
2021/12/25 01:51:54;;;;;;;10.10;2.60;;;0.00;99.90;;;;;;5012067;28;20102;-84
2021/12/25 01:54:20;;;;;;;5.60;2.13;;;0.00;99.90;;;;;;4973194;28;20526;-86
2021/12/25 01:56:47;;;;;;;5.55;1.92;;;-0.10;99.90;;;;;;4983602;28;20409;-86
2021/12/25 01:59:12;;;;;;;11.50;2.40;;;-0.10;99.90;;;;;;4987612;28;20087;-85
2021/12/25 02:01:38;;;;;;;8.57;2.10;;;-0.10;99.90;;;;;;4983600;28;20352;-86
2021/12/25 02:04:05;;;;;;;7.88;2.17;;;-0.20;99.90;;;;;;5006039;28;20039;-85
2021/12/25 02:06:30;;;;;;;8.07;2.25;;;-0.30;99.90;;;;;;4980248;28;20571;-85
2021/12/25 02:08:57;;;;;;;5.60;2.08;;;-0.30;99.90;;;;;;4967153;28;20167;-85
2021/12/25 02:11:24;;;;;;;10.32;2.17;;;-0.40;99.90;;;;;;4981736;28;20052;-86
2021/12/25 02:13:50;;;;;;;7.15;1.98;;;-0.30;99.90;;;;;;5000232;28;20882;-85
2021/12/25 02:16:20;;;;;;;8.00;1.75;;;-0.40;99.90;;;;;;4985495;28;20696;-86
2021/12/25 02:21:35;;;;;;;7.93;2.10;;;-0.50;99.90;;;;;;5004077;28;20047;-85
2021/12/25 02:24:04;;;;;;;7.32;1.90;;;-0.50;99.90;;;;;;5010441;28;20383;-85
2021/12/25 02:26:30;;;;;;;6.00;1.70;;;-0.60;99.90;;;;;;5007145;28;21235;-85
2021/12/25 02:28:56;;;;;;;7.18;1.60;;;-0.60;99.90;;;;;;5005700;28;22150;-86
2021/12/25 02:31:23;;;;;;;5.65;1.63;;;-0.60;99.90;;;;;;4994153;28;20078;-86
2021/12/25 02:33:49;;;;;;;6.90;1.80;;;-0.70;99.90;;;;;;4993847;28;20098;-85
2021/12/25 02:36:16;;;;;;;6.45;1.60;;;-0.70;99.90;;;;;;5004545;28;20086;-86
2021/12/25 02:38:43;;;;;;;6.65;1.50;;;-0.70;99.90;;;;;;5003395;28;20047;-86
2021/12/25 02:41:09;;;;;;;7.88;1.70;;;-0.70;99.90;;;;;;5008418;28;20157;-85
2021/12/25 02:43:38;;;;;;;7.35;1.65;;;-0.80;99.90;;;;;;4974718;28;20077;-85
2021/12/25 02:46:05;;;;;;;5.15;1.60;;;-0.90;99.90;;;;;;5010408;28;20491;-86
2021/12/25 02:48:34;;;;;;;7.32;1.48;;;-0.90;99.90;;;;;;5004378;28;20155;-85
2021/12/25 02:51:00;;;;;;;4.95;1.50;;;-0.90;99.90;;;;;;4983690;28;20719;-85
2021/12/25 02:53:26;;;;;;;9.95;1.80;;;-0.90;99.90;;;;;;4973592;28;20579;-84
2021/12/25 02:55:52;;;;;;;6.22;1.50;;;-0.90;99.90;;;;;;4990984;28;20489;-84
2021/12/25 02:58:19;;;;;;;8.15;1.60;;;-1.00;99.90;;;;;;5005143;28;20627;-85
2021/12/25 03:00:49;;;;;;;6.88;1.77;;;-1.00;99.90;;;;;;5004925;28;20078;-85
2021/12/25 03:03:15;;;;;;;4.57;1.42;;;-1.00;99.90;;;;;;5008252;28;20082;-85
2021/12/25 03:05:41;;;;;;;6.53;1.60;;;-1.10;99.90;;;;;;5006512;28;20039;-85
2021/12/25 03:08:08;;;;;;;7.68;1.65;;;-1.10;99.90;;;;;;5004962;28;20064;-85
2021/12/25 03:10:36;;;;;;;5.50;1.50;;;-1.20;99.90;;;;;;5004801;28;20526;-85
2021/12/25 03:13:57;;;;;;;5.47;1.60;;;-1.30;99.90;;;;;;4986227;28;20054;-85
2021/12/25 03:15:51;;;;;;;4.43;1.38;;;-1.30;99.90;;;;;;4978376;28;20754;-84
2021/12/25 03:18:27;;;;;;;7.20;1.70;;;-1.30;99.90;;;;;;5020128;28;20567;-85
2021/12/25 03:20:58;;;;;;;6.75;1.60;;;-1.20;99.90;;;;;;5011002;28;20498;-84
2021/12/25 03:23:26;;;;;;;7.15;1.42;;;-1.30;99.90;;;;;;5011437;28;20496;-84
2021/12/25 03:25:54;;;;;;;5.43;1.45;;;-1.30;99.90;;;;;;4986948;28;20043;-84
2021/12/25 03:28:23;;;;;;;4.72;1.30;;;-1.40;99.90;;;;;;5002891;28;20078;-84
2021/12/25 03:30:49;;;;;;;4.00;1.30;;;-1.40;99.90;;;;;;5003867;28;20047;-84
2021/12/25 03:33:17;;;;;;;5.80;1.50;;;-1.40;99.90;;;;;;4981859;28;21691;-83
2021/12/25 03:35:44;;;;;;;6.25;1.40;;;-1.50;99.90;;;;;;4990132;28;20047;-84
2021/12/25 03:38:13;;;;;;;6.38;1.40;;;-1.50;99.90;;;;;;5006488;28;20428;-84
2021/12/25 03:40:39;;;;;;;3.15;1.40;;;-1.50;99.90;;;;;;5005720;28;20052;-84
2021/12/25 03:43:05;;;;;;;3.00;1.38;;;-1.50;99.90;;;;;;5002089;28;21349;-83
2021/12/25 03:45:33;;;;;;;4.07;1.30;;;-1.60;99.90;;;;;;4999699;28;20044;-84
2021/12/25 03:48:09;;;;;;;4.30;1.10;;;-1.50;99.90;;;;;;5002526;28;20132;-83
2021/12/25 03:58:54;;;;;;;7.28;1.25;;;-1.70;99.90;;;;;;5008718;28;20063;-84
2021/12/25 04:01:42;;;;;;;3.35;1.10;;;-1.70;99.90;;;;;;5006990;28;20043;-84
2021/12/25 04:04:16;;;;;;;2.58;1.00;;;-1.80;99.90;;;;;;5004070;28;20299;-83
2021/12/25 04:07:01;;;;;;;1.77;1.00;;;-1.80;99.90;;;;;;5003673;28;20051;-82
2021/12/25 04:09:29;;;;;;;1.63;0.75;;;-1.80;99.90;;;;;;4997743;28;20051;-84
2021/12/25 04:12:06;;;;;;;4.68;1.02;;;-1.80;99.90;;;;;;4980430;28;20047;-84
2021/12/25 04:14:33;;;;;;;4.03;1.08;;;-1.90;99.90;;;;;;5006236;28;20477;-84
2021/12/25 04:16:58;;;;;;;3.17;1.00;;;-1.90;99.90;;;;;;5002869;28;20503;-83
2021/12/25 04:19:24;;;;;;;2.20;0.82;;;-2.00;99.90;;;;;;5002349;28;20056;-84
2021/12/25 04:21:55;;;;;;;3.72;1.30;;;-2.00;99.90;;;;;;5004343;28;20054;-84
2021/12/25 04:24:23;;;;;;;3.40;1.00;;;-2.10;99.90;;;;;;5003024;28;20044;-85
2021/12/25 04:26:49;;;;;;;2.95;1.17;;;-2.00;99.90;;;;;;4989384;28;20052;-85
2021/12/25 05:02:20;;;;;;;5.82;1.15;;;-2.40;99.90;;;;;;4993507;28;20766;-86
2021/12/25 05:04:51;;;;;;;4.90;1.20;;;-2.40;99.90;;;;;;5005793;28;20075;-85
2021/12/25 05:07:17;;;;;;;2.13;1.20;;;-2.40;99.90;;;;;;4981051;28;20134;-86
2021/12/25 05:09:43;;;;;;;2.38;1.00;;;-2.40;99.90;;;;;;5005139;28;20043;-86
2021/12/25 05:12:09;;;;;;;5.25;1.10;;;-2.40;99.90;;;;;;5007164;28;20047;-86
2021/12/25 05:14:35;;;;;;;3.28;1.42;;;-2.40;99.90;;;;;;4980703;28;20635;-85
2021/12/25 05:17:01;;;;;;;4.53;1.17;;;-2.40;99.90;;;;;;4975575;28;20496;-84
2021/12/25 05:19:27;;;;;;;4.80;1.27;;;-2.50;99.90;;;;;;4985491;28;20070;-84
2021/12/25 05:21:53;;;;;;;4.82;1.25;;;-2.50;99.90;;;;;;4978710;28;20498;-85
2021/12/25 05:24:20;;;;;;;4.70;1.27;;;-2.40;99.90;;;;;;4999373;28;20398;-85
2021/12/25 05:26:46;;;;;;;3.60;1.33;;;-2.40;99.90;;;;;;4986086;28;20507;-84
2021/12/25 05:29:12;;;;;;;3.53;1.27;;;-2.40;99.90;;;;;;4980187;28;20058;-85
2021/12/25 05:31:38;;;;;;;4.13;1.40;;;-2.40;99.90;;;;;;5006173;28;20382;-86
2021/12/25 05:34:07;;;;;;;3.80;1.20;;;-2.40;99.90;;;;;;4984861;28;20066;-85
2021/12/25 05:36:33;;;;;;;3.42;1.25;;;-2.40;99.90;;;;;;4974446;28;20075;-85
2021/12/25 05:38:59;;;;;;;2.95;1.17;;;-2.30;99.90;;;;;;4962002;28;20459;-84
2021/12/25 05:41:27;;;;;;;2.22;0.90;;;-2.40;99.90;;;;;;5022136;28;20056;-84
2021/12/25 05:43:54;;;;;;;3.53;1.02;;;-2.40;99.90;;;;;;5000852;28;20162;-84
2021/12/25 05:46:20;;;;;;;2.60;1.10;;;-2.40;99.90;;;;;;4981682;28;20103;-85
2021/12/25 05:48:48;;;;;;;4.25;1.00;;;-2.50;99.90;;;;;;4982688;28;20158;-83
2021/12/25 05:51:15;;;;;;;5.53;1.00;;;-2.40;99.90;;;;;;5002385;28;20047;-84
2021/12/25 05:53:41;;;;;;;3.78;0.95;;;-2.60;99.90;;;;;;5004646;28;20055;-84
2021/12/25 05:56:06;;;;;;;2.85;0.85;;;-2.60;99.90;;;;;;4995524;28;20425;-86
2021/12/25 05:58:33;;;;;;;2.15;1.00;;;-2.50;99.90;;;;;;4979748;28;20190;-84
2021/12/25 06:00:58;;;;;;;2.80;1.00;;;-2.60;99.90;;;;;;4982505;28;20482;-84
2021/12/25 06:03:24;;;;;;;3.60;1.00;;;-2.50;99.90;;;;;;4977253;28;20043;-84
2021/12/25 06:05:50;;;;;;;3.88;0.73;;;-2.50;99.90;;;;;;5000191;28;20047;-85
2021/12/25 06:08:16;;;;;;;2.78;0.80;;;-2.50;99.90;;;;;;4987459;28;20047;-87
2021/12/25 06:10:43;;;;;;;2.38;0.90;;;-2.60;99.90;;;;;;4980521;28;21037;-86
2021/12/25 06:13:15;;;;;;;2.72;0.93;;;-2.60;99.90;;;;;;5002906;28;20515;-86
2021/12/25 06:15:42;;;;;;;2.90;1.00;;;-2.80;99.90;;;;;;4985286;28;20050;-86
2021/12/25 06:18:09;;;;;;;2.72;0.88;;;-2.70;99.90;;;;;;5007055;28;20124;-84
2021/12/25 06:20:36;;;;;;;4.30;1.00;;;-2.70;99.90;;;;;;5003951;28;20401;-85
2021/12/25 06:23:02;;;;;;;1.60;0.90;;;-2.70;99.90;;;;;;5005821;28;20048;-87
2021/12/25 06:25:28;;;;;;;2.25;0.70;;;-2.70;99.90;;;;;;4983824;28;20574;-85
2021/12/25 06:27:54;;;;;;;4.45;0.98;;;-2.70;99.90;;;;;;4980938;28;20401;-86
2021/12/25 06:30:22;;;;;;;3.72;1.23;;;-2.80;99.90;;;;;;5010312;28;20047;-84
2021/12/25 06:32:48;;;;;;;2.72;0.95;;;-2.70;99.90;;;;;;4982271;28;20052;-87
2021/12/25 06:35:14;;;;;;;3.28;0.95;;;-2.90;99.90;;;;;;4973772;28;20337;-87
2021/12/25 06:37:42;;;;;;;4.32;0.88;;;-2.80;99.90;;;;;;4985676;28;20066;-87
2021/12/25 06:40:10;;;;;;;4.88;1.00;;;-2.70;99.90;;;;;;5005547;28;20062;-87
2021/12/25 06:42:37;;;;;;;2.38;1.00;;;-2.90;99.90;;;;;;4965323;28;20523;-86
2021/12/25 06:45:04;;;;;;;3.33;0.70;;;-3.00;99.90;;;;;;4971334;28;20109;-88
2021/12/25 06:47:30;;;;;;;4.10;0.88;;;-2.90;99.90;;;;;;5006101;28;20044;-86
2021/12/25 06:49:59;;;;;;;3.28;0.80;;;-2.90;99.90;;;;;;4989872;28;20054;-87
2021/12/25 06:52:24;;;;;;;4.00;1.30;;;-2.90;99.90;;;;;;4984208;28;20522;-88
2021/12/25 06:54:51;;;;;;;4.13;1.38;;;-2.80;99.90;;;;;;4995243;28;20771;-86
2021/12/25 06:57:18;;;;;;;4.80;1.35;;;-2.90;99.90;;;;;;4978166;28;20101;-85
2021/12/25 06:59:44;;;;;;;5.55;1.20;;;-2.90;99.90;;;;;;4972975;28;20409;-85
2021/12/25 07:02:09;;;;;;;2.50;0.90;;;-2.80;99.90;;;;;;5005680;28;20118;-84
2021/12/25 07:04:35;;;;;;;3.60;0.98;;;-2.90;99.90;;;;;;4985232;28;20105;-87
2021/12/25 07:07:01;;;;;;;4.47;0.90;;;-3.00;99.90;;;;;;5004521;28;20048;-87
2021/12/25 07:09:27;;;;;;;4.18;0.90;;;-2.90;99.90;;;;;;4971941;28;20749;-89
2021/12/25 07:11:53;;;;;;;2.00;1.00;;;-2.80;99.90;;;;;;4980381;28;20048;-88
2021/12/25 07:14:22;;;;;;;2.03;0.90;;;-3.00;99.90;;;;;;4976502;28;20122;-88
2021/12/25 07:16:50;;;;;;;4.97;1.00;;;-2.90;99.90;;;;;;5004609;28;20162;-88
2021/12/25 07:19:16;;;;;;;2.55;0.75;;;-3.00;99.90;;;;;;4993962;28;20131;-88
2021/12/25 07:21:46;;;;;;;4.20;1.00;;;-3.10;99.90;;;;;;5005099;28;20042;-88
2021/12/25 07:24:13;;;;;;;1.98;0.70;;;-3.00;99.90;;;;;;5015856;28;20818;-87
2021/12/25 07:26:42;;;;;;;1.17;0.70;;;-3.00;99.90;;;;;;4986464;28;20388;-85
2021/12/25 07:29:15;;;;;;;4.25;1.05;;;-3.00;99.90;;;;;;4995445;28;20054;-88
2021/12/25 07:31:41;;;;;;;2.17;0.90;;;-3.10;99.90;;;;;;4993750;28;20046;-87
2021/12/25 07:34:07;;;;;;;3.17;0.90;;;-3.00;99.90;;;;;;5019215;28;20081;-86
2021/12/25 07:36:33;;;;;;;2.88;0.80;;;-3.10;99.90;;;;;;5004147;28;20733;-85
2021/12/25 07:39:02;;;;;;;4.32;0.80;;;-3.00;99.90;;;;;;4979076;28;20056;-86
2021/12/25 07:41:27;;;;;;;3.92;1.05;;;-3.10;99.90;;;;;;4996398;28;20055;-88
2021/12/25 07:43:53;;;;;;;6.60;1.08;;;-3.00;99.90;;;;;;4981610;28;20048;-87
2021/12/25 07:46:21;;;;;;;4.15;0.90;;;-3.10;99.90;;;;;;4996020;28;20636;-91
2021/12/25 07:48:48;;;;;;;4.13;1.27;;;-3.00;99.90;;;;;;4977291;28;20079;-85
2021/12/25 07:51:14;;;;;;;4.30;0.82;;;-3.00;99.90;;;;;;4986807;28;20043;-84
2021/12/25 07:53:44;;;;;;;4.57;0.88;;;-3.00;99.90;;;;;;4982153;28;20429;-85
2021/12/25 07:56:11;;;;;;;2.60;0.82;;;-3.00;99.90;;;;;;5008778;28;20043;-84
2021/12/25 07:58:37;;;;;;;3.85;0.75;;;-3.10;99.90;;;;;;5009397;28;20516;-91
2021/12/25 08:01:03;;;;;;;3.10;1.08;;;-3.00;99.90;;;;;;4991269;28;20214;-84
2021/12/25 08:03:29;;;;;;;3.85;0.90;;;-3.00;99.90;;;;;;5002231;28;20139;-87
2021/12/25 08:05:54;;;;;;;2.65;0.90;;;-2.90;99.90;;;;;;4988994;28;20040;-87
2021/12/25 08:08:20;;;;;;;2.25;0.93;;;-3.00;99.90;;;;;;5013828;28;20397;-88
2021/12/25 08:10:46;;;;;;;2.75;1.00;;;-3.10;99.90;;;;;;4985797;28;20040;-86
2021/12/25 08:13:15;;;;;;;3.38;1.02;;;-3.00;99.90;;;;;;4978549;28;20066;-88
2021/12/25 08:15:41;;;;;;;2.35;0.80;;;-3.00;99.90;;;;;;4988789;28;20545;-87
2021/12/25 08:18:10;;;;;;;2.17;0.65;;;-3.00;99.90;;;;;;4980071;28;20710;-88
2021/12/25 08:20:37;;;;;;;3.83;0.88;;;-2.90;99.90;;;;;;5014447;28;20048;-87
2021/12/25 08:23:03;;;;;;;2.80;0.93;;;-2.90;99.90;;;;;;4991457;28;20050;-85
2021/12/25 08:25:32;;;;;;;5.35;1.08;;;-2.90;99.90;;;;;;5017829;28;21002;-91
2021/12/25 08:27:58;;;;;;;5.38;0.98;;;-2.80;99.90;;;;;;5012907;28;20043;-85
2021/12/25 08:30:26;;;;;;;4.63;0.90;;;-2.80;99.90;;;;;;5003533;28;20062;-87
2021/12/25 08:32:55;;;;;;;3.33;0.90;;;-2.80;99.90;;;;;;4998508;28;20086;-87
2021/12/25 08:35:24;;;;;;;4.22;1.00;;;-2.80;99.90;;;;;;4979197;28;20089;-87
2021/12/25 08:37:52;;;;;;;1.77;0.85;;;-2.80;99.90;;;;;;4989561;28;20539;-86
2021/12/25 08:40:18;;;;;;;3.35;1.02;;;-2.80;99.90;;;;;;4993847;28;20144;-86
2021/12/25 08:42:52;;;;;;;4.55;0.80;;;-2.90;99.90;;;;;;4981277;28;20123;-92
2021/12/25 08:48:06;;;;;;;3.53;0.80;;;-2.80;99.90;;;;;;4994220;28;20043;-86
2021/12/25 08:50:32;;;;;;;4.30;0.93;;;-2.60;99.90;;;;;;4987135;28;20158;-82
2021/12/25 08:52:58;;;;;;;3.95;1.02;;;-2.70;99.90;;;;;;5005571;28;20503;-84
2021/12/25 08:55:25;;;;;;;5.90;0.82;;;-2.80;99.90;;;;;;4986455;28;20039;-84
2021/12/25 08:57:51;;;;;;;2.65;0.80;;;-2.70;99.90;;;;;;5015823;28;20055;-87
2021/12/25 09:00:19;;;;;;;4.13;1.00;;;-2.70;99.90;;;;;;4997803;28;20070;-87
2021/12/25 09:02:48;;;;;;;3.78;0.80;;;-2.70;99.90;;;;;;4990221;28;20049;-87
2021/12/25 09:05:14;;;;;;;3.10;0.98;;;-2.70;99.90;;;;;;5007893;28;20032;-87
2021/12/25 09:07:40;;;;;;;4.50;1.10;;;-2.70;99.90;;;;;;4991575;28;20062;-86
2021/12/25 09:10:06;;;;;;;2.00;0.82;;;-2.60;99.90;;;;;;4990317;28;20474;-84
2021/12/25 09:12:33;;;;;;;4.28;1.10;;;-2.50;99.90;;;;;;5011398;28;20232;-86
2021/12/25 09:14:59;;;;;;;4.70;1.00;;;-2.50;99.90;;;;;;5005960;28;20054;-84
2021/12/25 09:17:25;;;;;;;5.78;1.00;;;-2.40;99.90;;;;;;4981580;28;20040;-88
2021/12/25 09:19:51;;;;;;;6.80;1.20;;;-2.40;99.90;;;;;;4976242;28;20730;-84
2021/12/25 09:22:16;;;;;;;4.03;1.00;;;-2.30;99.90;;;;;;4988673;28;20061;-86
2021/12/25 09:24:42;;;;;;;3.45;0.90;;;-2.20;99.90;;;;;;4982669;28;20409;-84
2021/12/25 09:27:09;;;;;;;2.92;1.08;;;-2.30;99.90;;;;;;4992286;28;20051;-87
2021/12/25 09:29:35;;;;;;;4.22;1.00;;;-2.20;99.90;;;;;;4993160;28;20372;-87
2021/12/25 09:32:01;;;;;;;5.05;1.27;;;-2.10;99.90;;;;;;5010568;28;20537;-87
2021/12/25 09:34:30;;;;;;;6.95;1.30;;;-2.10;99.90;;;;;;4982261;28;20052;-89
2021/12/25 09:36:55;;;;;;;2.50;0.85;;;-2.20;99.90;;;;;;5016110;28;20040;-89
2021/12/25 09:39:22;;;;;;;7.82;1.00;;;-2.10;99.90;;;;;;5011431;28;20868;-89
2021/12/25 09:41:48;;;;;;;3.72;1.30;;;-2.20;99.90;;;;;;4996468;28;20397;-86
2021/12/25 09:44:14;;;;;;;6.20;1.17;;;-2.10;99.90;;;;;;4975843;28;20120;-87
2021/12/25 09:46:42;;;;;;;3.75;0.80;;;-2.00;99.90;;;;;;4983520;28;20047;-88
2021/12/25 09:49:12;;;;;;;6.50;1.20;;;-2.10;99.90;;;;;;4990307;28;20393;-91
2021/12/25 09:51:38;;;;;;;4.72;1.00;;;-1.90;99.90;;;;;;4992559;28;20043;-90
2021/12/25 09:54:08;;;;;;;4.18;0.73;;;-1.90;99.90;;;;;;5023892;28;20047;-90
2021/12/25 09:56:36;;;;;;;4.82;1.10;;;-1.80;99.90;;;;;;4996634;28;20039;-86
2021/12/25 09:59:04;;;;;;;2.95;0.98;;;-1.80;99.90;;;;;;4994915;28;20532;-89
2021/12/25 10:02:01;;;;;;;4.53;1.10;;;-1.70;99.90;;;;;;4991626;28;20039;-91
2021/12/25 10:04:33;;;;;;;5.80;0.95;;;-1.60;99.90;;;;;;5004150;28;20319;-90
2021/12/25 10:10:10;;;;;;;3.47;0.90;;;-1.60;99.90;;;;;;5020740;28;20671;-87
2021/12/25 10:13:03;;;;;;;5.65;1.00;;;-1.50;99.90;;;;;;5022034;28;20108;-88
2021/12/25 10:15:29;;;;;;;5.85;1.13;;;-1.50;99.90;;;;;;5006698;28;20102;-86
2021/12/25 10:17:59;;;;;;;3.63;0.90;;;-1.60;99.90;;;;;;5002952;28;21010;-92
2021/12/25 10:20:33;;;;;;;4.28;1.00;;;-1.40;99.90;;;;;;5003219;28;20422;-90
2021/12/25 10:23:04;;;;;;;2.72;1.10;;;-1.40;99.90;;;;;;5011132;28;20047;-87
2021/12/25 10:25:39;;;;;;;4.65;0.88;;;-1.50;99.90;;;;;;5004413;28;20130;-89
2021/12/25 10:28:07;;;;;;;4.57;0.88;;;-1.40;99.90;;;;;;5002045;28;20126;-89
2021/12/25 10:31:18;;;;;;;5.95;0.93;;;-1.20;99.90;;;;;;5007383;28;20879;-89
2021/12/25 10:33:53;;;;;;;3.47;0.98;;;-1.30;99.90;;;;;;4979444;28;20380;-92
2021/12/25 10:36:23;;;;;;;4.75;1.00;;;-1.20;99.90;;;;;;5017161;28;20996;-89
2021/12/25 10:39:25;;;;;;;5.82;1.00;;;-1.30;99.90;;;;;;5011065;28;20126;-90
2021/12/25 10:42:09;;;;;;;5.65;1.15;;;-1.30;99.90;;;;;;5019168;28;20521;-90
2021/12/25 10:44:38;;;;;;;2.45;0.90;;;-1.30;99.90;;;;;;4998564;28;20145;-92
2021/12/25 10:47:16;;;;;;;2.75;0.85;;;-1.30;99.90;;;;;;5021783;28;20862;-93
2021/12/25 10:49:54;;;;;;;3.67;1.10;;;-1.20;99.90;;;;;;5010085;28;20537;-93
2021/12/25 10:52:31;;;;;;;4.40;0.90;;;-1.20;99.90;;;;;;5019245;28;20039;-90
2021/12/25 10:55:00;;;;;;;3.65;1.10;;;-1.10;99.90;;;;;;5000291;28;20471;-83
2021/12/25 10:57:45;;;;;;;2.80;0.98;;;-1.00;99.90;;;;;;5000473;28;20205;-88
2021/12/25 11:00:27;;;;;;;3.15;0.90;;;-1.10;99.90;;;;;;5004062;28;20047;-86
2021/12/25 11:03:13;;;;;;;3.30;1.00;;;-1.10;99.90;;;;;;4993423;28;20044;-91
2021/12/25 11:05:47;;;;;;;5.05;1.08;;;-1.00;99.90;;;;;;4994807;28;20340;-90
2021/12/25 11:08:20;;;;;;;4.03;0.90;;;-0.90;99.90;;;;;;5000516;28;20516;-89
2021/12/25 11:10:51;;;;;;;2.10;0.80;;;-1.00;99.90;;;;;;5004830;28;20047;-92
2021/12/25 11:13:37;;;;;;;1.63;0.90;;;-1.00;99.90;;;;;;5011362;28;20044;-88
2021/12/25 11:16:15;;;;;;;4.70;1.00;;;-0.80;99.90;;;;;;4997179;28;20062;-88
2021/12/25 11:19:07;;;;;;;4.15;1.02;;;-0.80;99.90;;;;;;5013861;28;20070;-86
2021/12/25 11:21:35;;;;;;;5.25;1.10;;;-0.70;99.90;;;;;;5006374;28;20054;-85
2021/12/25 11:24:15;;;;;;;3.65;0.90;;;-0.70;99.90;;;;;;5013564;28;20481;-88
2021/12/25 11:26:44;;;;;;;1.67;0.88;;;-0.60;99.90;;;;;;5011629;28;20146;-87
2021/12/25 11:29:14;;;;;;;5.40;1.10;;;-0.70;99.90;;;;;;5014667;28;20405;-87
2021/12/25 11:31:43;;;;;;;4.38;0.93;;;-0.60;99.90;;;;;;4974563;28;20040;-89
2021/12/25 11:34:10;;;;;;;4.35;1.35;;;-0.70;99.90;;;;;;4987719;28;20075;-88
2021/12/25 11:36:41;;;;;;;5.32;1.13;;;-0.70;99.90;;;;;;4990759;28;21103;-87
2021/12/25 11:39:07;;;;;;;2.38;0.80;;;-0.70;99.90;;;;;;5005018;28;20071;-87
2021/12/25 11:41:35;;;;;;;3.42;0.93;;;-0.80;99.70;;;;;;5006787;28;20747;-88
2021/12/25 11:44:05;;;;;;;3.03;1.00;;;-0.70;99.60;;;;;;4983310;28;20046;-89
2021/12/25 11:46:45;;;;;;;3.25;0.80;;;-0.70;99.30;;;;;;5014120;28;20467;-84
2021/12/25 11:49:14;;;;;;;4.32;1.00;;;-0.70;99.90;;;;;;4989530;28;20536;-89
2021/12/25 11:51:46;;;;;;;3.58;0.85;;;-0.50;99.90;;;;;;4985280;28;20561;-86
2021/12/25 11:55:16;;;;;;;3.53;0.90;;;-0.70;97.10;;;;;;5016503;28;20048;-85
2021/12/25 11:59:49;;;;;;;4.20;1.08;;;-0.40;99.90;;;;;;5013263;28;20413;-87
2021/12/25 12:02:38;;;;;;;2.83;1.00;;;-0.40;99.90;;;;;;5009383;28;20198;-88
2021/12/25 12:05:32;;;;;;;2.55;1.00;;;-0.30;99.90;;;;;;5001979;28;20069;-86
2021/12/25 12:08:11;;;;;;;3.80;1.00;;;-0.40;96.70;;;;;;5014183;28;20063;-87
2021/12/25 12:10:46;;;;;;;4.65;1.00;;;-0.40;99.20;;;;;;5002285;28;20063;-88
2021/12/25 12:13:22;;;;;;;5.18;1.45;;;-0.30;97.50;;;;;;5007928;28;20058;-88
2021/12/25 12:15:57;;;;;;;5.00;1.20;;;-0.30;95.70;;;;;;5019615;28;20554;-88
2021/12/25 12:18:27;;;;;;;4.28;1.15;;;-0.40;96.00;;;;;;4998128;28;20418;-85
2021/12/25 12:21:08;;;;;;;3.58;0.93;;;-0.30;95.00;;;;;;5001446;28;20054;-87
2021/12/25 12:26:13;;;;;;;3.72;0.82;;;-0.40;97.00;;;;;;5021272;28;20433;-88
2021/12/25 12:28:54;;;;;;;2.72;0.90;;;-0.50;95.00;;;;;;4989220;28;20093;-85
2021/12/25 12:31:39;;;;;;;2.53;1.05;;;-0.50;93.90;;;;;;5013185;28;20051;-85
2021/12/25 12:34:30;;;;;;;4.78;0.98;;;-0.30;97.00;;;;;;5012225;28;20519;-83
2021/12/25 12:37:14;;;;;;;3.15;1.10;;;-0.40;97.60;;;;;;5010264;28;20048;-85
2021/12/25 12:39:45;;;;;;;5.72;1.30;;;-0.40;96.40;;;;;;5001837;28;20074;-85
2021/12/25 12:42:13;;;;;;;3.50;1.10;;;-0.20;99.90;;;;;;5006044;28;20055;-85
2021/12/25 12:44:42;;;;;;;2.63;1.00;;;-0.10;97.60;;;;;;5013546;28;20427;-86
2021/12/25 12:47:18;;;;;;;3.13;1.08;;;-0.30;97.00;;;;;;4993806;28;20563;-85
2021/12/25 12:49:50;;;;;;;3.55;0.80;;;-0.30;93.00;;;;;;5006541;28;20922;-86
2021/12/25 12:52:22;;;;;;;4.68;1.10;;;-0.30;93.70;;;;;;4996950;28;20866;-84
2021/12/25 12:54:56;;;;;;;2.55;0.90;;;-0.20;94.20;;;;;;5008813;28;20435;-87
2021/12/25 12:57:32;;;;;;;6.32;1.20;;;-0.20;94.00;;;;;;5006493;28;20218;-86
2021/12/25 13:00:00;;;;;;;5.38;1.10;;;-0.20;92.80;;;;;;5014534;28;20051;-86
2021/12/25 13:02:31;;;;;;;4.93;1.00;;;-0.20;95.60;;;;;;5025805;28;20496;-85
2021/12/25 13:05:00;;;;;;;4.75;1.15;;;-0.20;95.60;;;;;;5030943;27;20055;-86
2021/12/25 13:07:31;;;;;;;4.03;1.15;;;-0.10;96.00;;;;;;5006175;28;20067;-85
2021/12/25 13:10:06;;;;;;;5.63;1.15;;;-0.20;96.90;;;;;;5011824;28;20106;-86
2021/12/25 13:12:44;;;;;;;3.30;0.98;;;-0.20;94.10;;;;;;5005806;28;20978;-84
2021/12/25 13:15:16;;;;;;;3.00;1.10;;;-0.30;92.80;;;;;;4989836;28;20059;-84
2021/12/25 13:18:07;;;;;;;7.30;1.55;;;-0.20;95.40;;;;;;4986565;28;21034;-85
2021/12/25 13:20:47;;;;;;;5.78;1.15;;;-0.20;94.30;;;;;;5011609;28;20060;-87
2021/12/25 13:23:16;;;;;;;3.08;1.05;;;-0.20;94.10;;;;;;4989828;28;20524;-84
2021/12/25 13:26:01;;;;;;;5.43;1.20;;;-0.10;94.70;;;;;;5010385;28;20096;-83
2021/12/25 13:28:29;;;;;;;3.60;1.10;;;-0.30;93.60;;;;;;5011271;28;20057;-87
2021/12/25 13:31:04;;;;;;;4.82;1.33;;;-0.20;94.40;;;;;;5003345;28;20082;-86
2021/12/25 13:33:34;;;;;;;3.88;1.20;;;-0.10;94.30;;;;;;4997797;28;20220;-85
2021/12/25 13:36:03;;;;;;;3.47;1.00;;;-0.20;93.20;;;;;;5008205;28;20051;-85
2021/12/25 13:38:41;;;;;;;5.43;1.00;;;-0.30;91.30;;;;;;5007899;28;20831;-86
2021/12/25 13:41:07;;;;;;;5.82;1.10;;;-0.30;92.00;;;;;;4996780;28;20114;-86
2021/12/25 13:43:33;;;;;;;4.53;1.25;;;-0.20;94.10;;;;;;4990668;28;20112;-85
2021/12/25 13:45:59;;;;;;;2.47;1.00;;;-0.20;95.90;;;;;;4983858;28;20047;-87
2021/12/25 13:48:25;;;;;;;4.47;1.13;;;-0.30;92.30;;;;;;4990063;28;20154;-87
2021/12/25 13:50:52;;;;;;;4.95;1.30;;;-0.20;95.30;;;;;;5008537;28;20357;-85
2021/12/25 13:53:18;;;;;;;4.10;1.02;;;-0.10;96.20;;;;;;4986661;28;20134;-87
2021/12/25 13:55:47;;;;;;;4.60;1.13;;;-0.20;97.90;;;;;;4988475;28;20544;-86
2021/12/25 13:58:15;;;;;;;3.17;1.08;;;-0.30;95.40;;;;;;4972995;28;21511;-84
2021/12/25 14:00:48;;;;;;;3.85;1.10;;;-0.30;93.10;;;;;;4984316;28;20051;-84
2021/12/25 14:03:20;;;;;;;4.00;1.20;;;-0.40;92.30;;;;;;5007916;28;20560;-85
2021/12/25 14:05:49;;;;;;;3.75;1.05;;;-0.30;97.50;;;;;;4996560;28;20553;-86
2021/12/25 14:08:19;;;;;;;4.93;1.20;;;-0.30;92.70;;;;;;4998171;28;20595;-86
2021/12/25 14:10:45;;;;;;;3.45;1.20;;;-0.40;96.00;;;;;;5011319;28;20047;-85
2021/12/25 14:13:18;;;;;;;4.13;1.10;;;-0.40;94.50;;;;;;4991538;28;20054;-86
2021/12/25 14:15:50;;;;;;;3.22;1.10;;;-0.50;91.10;;;;;;5013023;28;20461;-85
2021/12/25 14:18:17;;;;;;;4.90;1.20;;;-0.50;91.20;;;;;;5014882;28;20093;-85